Time;durP1;ratioP1;P1;durP2;ratioP2;P2;SDS_P1;SDS_P2;PMS_P1;PMS_P2;Temp;Humidity;BMP_temperature;BMP_pressure;BME280_temperature;BME280_humidity;BME280_pressure;Samples;Min_cycle;Max_cycle;Signal;HPM_P1;HPM_P2
2022/04/25 00:00:30;;;;;;;8.40;4.90;;;;;;;8.10;84.12;95389.58;107944;1267;35075;-76
2022/04/25 00:03:10;;;;;;;9.20;5.80;;;;;;;8.02;84.08;95387.77;107835;1268;36283;-76
2022/04/25 00:05:41;;;;;;;9.50;5.50;;;;;;;7.99;84.71;95385.23;107766;1269;34937;-76
2022/04/25 00:08:11;;;;;;;8.40;5.10;;;;;;;8.01;85.09;95382.66;107901;1268;34860;-76
2022/04/25 00:10:42;;;;;;;8.60;5.20;;;;;;;8.07;85.63;95375.17;107805;1268;34530;-76
2022/04/25 00:13:14;;;;;;;9.30;5.60;;;;;;;8.13;85.61;95378.54;107820;1268;33897;-76
2022/04/25 00:15:45;;;;;;;10.80;5.60;;;;;;;8.12;85.63;95372.11;108009;1267;31316;-76
2022/04/25 00:18:16;;;;;;;10.60;5.10;;;;;;;8.13;85.56;95365.66;107928;1268;33619;-76
2022/04/25 00:20:47;;;;;;;8.80;5.00;;;;;;;8.16;85.58;95370.72;107978;1268;34106;-76
2022/04/25 00:23:20;;;;;;;7.30;4.80;;;;;;;8.20;85.71;95370.88;107903;1268;33289;-76
2022/04/25 00:25:53;;;;;;;6.40;4.40;;;;;;;8.27;85.74;95365.55;107822;1268;37282;-76
2022/04/25 00:28:24;;;;;;;7.70;4.50;;;;;;;8.31;85.83;95364.13;107889;1268;33626;-76
2022/04/25 00:30:55;;;;;;;7.90;3.80;;;;;;;8.27;85.38;95365.40;107865;1268;36902;-76
2022/04/25 00:33:26;;;;;;;7.90;4.00;;;;;;;8.19;85.43;95361.60;107910;1268;32615;-76
2022/04/25 00:35:57;;;;;;;7.10;3.50;;;;;;;8.18;85.51;95357.98;107788;1268;35887;-76
2022/04/25 00:38:28;;;;;;;5.50;3.80;;;;;;;8.13;85.27;95351.66;107819;1268;37307;-76
2022/04/25 00:40:59;;;;;;;5.70;3.30;;;;;;;8.07;85.43;95359.83;107798;1268;31872;-76
2022/04/25 00:43:29;;;;;;;7.70;3.70;;;;;;;8.03;85.76;95368.14;107592;1271;230411;-76
2022/04/25 00:46:00;;;;;;;6.50;3.60;;;;;;;8.00;85.80;95369.17;107828;1268;34539;-76
2022/04/25 00:48:31;;;;;;;7.20;3.90;;;;;;;7.95;85.96;95366.16;107937;1268;35833;-76
2022/04/25 00:51:02;;;;;;;7.40;3.90;;;;;;;7.91;85.89;95370.41;107908;1267;38441;-76
2022/04/25 00:53:33;;;;;;;8.80;3.80;;;;;;;7.82;85.71;95369.59;107918;1268;31670;-76
2022/04/25 00:56:04;;;;;;;6.80;4.30;;;;;;;7.70;85.93;95372.77;107889;1267;35539;-76
2022/04/25 00:58:35;;;;;;;8.40;4.20;;;;;;;7.58;86.35;95371.75;107815;1268;36013;-76
2022/04/25 01:01:06;;;;;;;7.30;4.10;;;;;;;7.51;86.99;95369.66;107918;1268;38127;-76
2022/04/25 01:03:37;;;;;;;6.60;3.00;;;;;;;7.46;87.46;95372.79;107853;1268;33717;-76
2022/04/25 01:06:08;;;;;;;4.50;3.00;;;;;;;7.45;87.96;95375.06;107850;1268;34467;-76
2022/04/25 01:08:39;;;;;;;6.90;3.50;;;;;;;7.54;88.63;95376.28;107735;1268;38429;-76
2022/04/25 01:11:13;;;;;;;5.30;3.30;;;;;;;7.58;88.35;95381.39;107859;1267;33438;-76
2022/04/25 01:13:44;;;;;;;7.00;3.60;;;;;;;7.61;88.34;95387.23;107912;1268;32511;-76
2022/04/25 01:16:15;;;;;;;4.70;2.80;;;;;;;7.58;88.43;95384.23;107936;1268;41492;-76
2022/04/25 01:18:46;;;;;;;6.70;3.10;;;;;;;7.60;88.44;95384.68;107932;1268;35892;-76
2022/04/25 01:21:21;;;;;;;7.20;3.60;;;;;;;7.68;88.67;95383.81;107949;1268;31342;-76
2022/04/25 01:29:32;;;;;;;8.00;3.10;;;;;;;7.88;87.78;95381.01;107879;1268;33648;-76
2022/04/25 01:32:04;;;;;;;7.40;3.10;;;;;;;7.80;87.38;95377.64;107894;1268;30892;-76
2022/04/25 01:34:37;;;;;;;6.40;2.90;;;;;;;7.60;87.28;95373.15;107791;1268;36043;-76
2022/04/25 01:37:12;;;;;;;6.00;3.30;;;;;;;7.44;87.26;95370.13;107871;1267;30771;-76
2022/04/25 01:39:45;;;;;;;5.70;3.20;;;;;;;7.37;87.24;95374.24;107905;1267;31881;-76
2022/04/25 01:42:17;;;;;;;5.50;3.10;;;;;;;7.32;86.98;95375.01;107976;1268;40134;-76
2022/04/25 01:44:48;;;;;;;4.80;2.90;;;;;;;7.28;86.89;95376.17;107927;1268;32115;-76
2022/04/25 01:47:20;;;;;;;6.60;3.40;;;;;;;7.24;86.85;95373.02;107829;1268;35206;-76
2022/04/25 01:49:51;;;;;;;4.90;2.70;;;;;;;7.15;86.42;95369.83;107900;1268;33811;-76
2022/04/25 01:52:29;;;;;;;7.20;3.40;;;;;;;7.05;86.20;95371.14;107871;1267;38358;-76
2022/04/25 01:55:01;;;;;;;7.00;4.20;;;;;;;7.02;86.40;95372.59;107949;1267;32241;-76
2022/04/25 01:57:33;;;;;;;6.90;3.60;;;;;;;7.04;86.79;95377.39;107946;1267;42840;-76
2022/04/25 02:00:04;;;;;;;6.80;4.30;;;;;;;6.98;86.49;95378.98;107845;1268;34364;-76
2022/04/25 02:02:37;;;;;;;6.30;3.70;;;;;;;6.91;86.49;95379.14;107885;1268;35137;-76
2022/04/25 02:05:10;;;;;;;6.60;2.70;;;;;;;6.73;85.99;95382.38;107916;1267;32927;-76
2022/04/25 02:07:40;;;;;;;6.40;3.50;;;;;;;6.51;86.29;95388.65;107912;1268;34382;-76
2022/04/25 02:10:12;;;;;;;4.20;3.00;;;;;;;6.45;86.48;95380.92;107868;1268;33680;-75
2022/04/25 02:12:45;;;;;;;5.70;3.20;;;;;;;6.40;86.60;95379.46;107850;1268;39729;-76
2022/04/25 02:15:16;;;;;;;6.60;3.30;;;;;;;6.38;86.75;95372.44;107985;1268;29697;-76
2022/04/25 02:17:47;;;;;;;7.40;3.60;;;;;;;6.36;86.88;95373.25;107955;1268;36479;-76
2022/04/25 02:20:18;;;;;;;5.80;3.00;;;;;;;6.35;86.86;95382.31;107847;1268;34535;-75
2022/04/25 02:22:48;;;;;;;4.60;3.20;;;;;;;6.30;86.74;95381.73;107910;1268;32608;-76
2022/04/25 02:25:20;;;;;;;8.90;3.20;;;;;;;6.29;87.19;95379.42;107905;1268;35313;-76
2022/04/25 02:27:51;;;;;;;6.60;3.00;;;;;;;6.29;87.36;95381.00;107879;1268;41723;-76
2022/04/25 02:30:22;;;;;;;6.20;3.20;;;;;;;6.38;88.29;95377.80;107774;1268;33495;-76
2022/04/25 02:32:53;;;;;;;6.90;3.50;;;;;;;6.51;88.74;95379.44;107872;1268;33424;-76
2022/04/25 02:35:24;;;;;;;8.70;4.20;;;;;;;6.69;89.62;95377.31;107865;1268;35651;-76
2022/04/25 02:37:55;;;;;;;7.30;4.20;;;;;;;6.82;89.90;95380.30;107864;1268;37268;-76
2022/04/25 02:40:27;;;;;;;11.00;3.80;;;;;;;6.91;89.68;95380.98;107811;1268;37920;-76
2022/04/25 02:42:59;;;;;;;6.40;3.40;;;;;;;6.95;89.55;95381.61;107867;1268;36442;-76
2022/04/25 02:45:30;;;;;;;5.80;3.20;;;;;;;6.95;89.75;95382.08;107868;1268;32835;-76
2022/04/25 02:48:00;;;;;;;7.50;4.10;;;;;;;6.95;90.16;95382.50;107821;1268;36327;-76
2022/04/25 02:50:31;;;;;;;6.50;3.90;;;;;;;6.97;90.30;95381.95;107801;1268;57225;-76
2022/04/25 02:53:02;;;;;;;5.00;3.40;;;;;;;6.99;90.36;95384.64;107891;1268;35001;-76
2022/04/25 02:55:32;;;;;;;4.50;3.60;;;;;;;7.01;90.04;95387.83;107846;1268;33232;-77
2022/04/25 02:58:02;;;;;;;;;;;;;;;7.03;89.69;95389.81;107820;1268;33472;-76
2022/04/25 03:00:32;;;;;;;7.30;3.40;;;;;;;7.05;89.96;95391.58;107804;1268;35766;-76
2022/04/25 03:03:06;;;;;;;6.90;3.90;;;;;;;7.12;89.78;95394.34;107748;1268;43742;-76
2022/04/25 03:05:37;;;;;;;6.40;3.50;;;;;;;7.13;89.69;95391.04;107759;1268;38850;-76
2022/04/25 03:08:09;;;;;;;7.10;3.80;;;;;;;7.16;89.60;95393.25;107913;1268;35168;-76
2022/04/25 03:10:39;;;;;;;7.10;3.40;;;;;;;7.16;89.20;95394.68;107807;1268;33831;-76
2022/04/25 03:13:11;;;;;;;7.00;3.40;;;;;;;7.12;88.87;95392.48;107781;1268;37163;-76
2022/04/25 03:15:42;;;;;;;4.10;2.60;;;;;;;7.05;88.41;95396.54;107768;1268;34081;-76
2022/04/25 03:18:15;;;;;;;5.40;3.20;;;;;;;6.99;88.04;95395.62;107748;1270;36996;-76
2022/04/25 03:20:48;;;;;;;6.00;3.30;;;;;;;6.95;88.03;95392.64;108002;1268;35079;-75
2022/04/25 03:23:20;;;;;;;6.00;2.90;;;;;;;6.87;87.95;95395.77;107783;1268;34357;-76
2022/04/25 03:25:52;;;;;;;5.30;2.30;;;;;;;6.80;87.89;95397.04;107862;1268;32228;-76
2022/04/25 03:28:23;;;;;;;5.40;3.10;;;;;;;6.76;88.02;95397.88;107846;1268;32157;-75
2022/04/25 03:30:54;;;;;;;4.60;3.10;;;;;;;6.74;88.17;95405.27;107760;1271;34995;-76
2022/04/25 03:33:31;;;;;;;6.40;3.60;;;;;;;6.71;88.39;95403.52;107817;1268;38622;-76
2022/04/25 03:36:02;;;;;;;6.20;3.90;;;;;;;6.73;88.44;95396.12;107859;1268;31911;-76
2022/04/25 03:38:33;;;;;;;5.00;2.90;;;;;;;6.75;88.44;95395.14;107807;1268;32634;-76
2022/04/25 03:41:07;;;;;;;6.80;4.00;;;;;;;6.77;88.45;95394.61;107820;1268;33512;-76
2022/04/25 03:43:38;;;;;;;5.10;3.60;;;;;;;6.77;88.88;95395.61;107793;1268;35805;-76
2022/04/25 03:46:09;;;;;;;7.30;4.00;;;;;;;6.78;88.56;95397.75;107798;1268;36809;-76
2022/04/25 03:48:41;;;;;;;6.10;3.90;;;;;;;6.76;88.25;95394.35;107826;1268;34964;-76
2022/04/25 03:51:12;;;;;;;6.50;4.00;;;;;;;6.78;88.26;95396.70;107890;1268;36390;-76
2022/04/25 03:53:43;;;;;;;9.30;4.00;;;;;;;6.82;88.18;95398.11;107851;1270;34265;-76
2022/04/25 03:59:02;;;;;;;6.30;3.30;;;;;;;6.88;87.82;95400.50;107763;1268;34559;-75
2022/04/25 04:01:32;;;;;;;6.20;3.40;;;;;;;6.89;87.73;95403.12;107760;1268;33784;-75
2022/04/25 04:04:05;;;;;;;6.10;3.50;;;;;;;6.84;87.60;95411.41;107824;1268;32289;-75
2022/04/25 04:06:37;;;;;;;6.20;3.90;;;;;;;6.86;87.81;95411.48;107837;1268;36533;-76
2022/04/25 04:11:52;;;;;;;6.50;3.80;;;;;;;6.99;88.33;95414.64;107852;1268;38245;-76
2022/04/25 04:14:23;;;;;;;9.10;4.00;;;;;;;7.08;88.30;95419.90;107739;1268;36217;-76
2022/04/25 04:16:54;;;;;;;5.50;3.80;;;;;;;7.10;88.42;95423.24;107715;1268;37910;-76
2022/04/25 04:19:25;;;;;;;6.30;3.60;;;;;;;7.21;88.31;95423.52;107795;1268;35797;-76
2022/04/25 04:21:57;;;;;;;6.80;3.90;;;;;;;7.29;88.29;95421.65;107855;1268;34768;-76
2022/04/25 04:24:27;;;;;;;6.70;4.00;;;;;;;7.35;88.41;95427.27;107823;1268;34118;-76
2022/04/25 04:27:01;;;;;;;5.30;3.50;;;;;;;7.45;88.42;95423.63;107819;1268;38408;-76
2022/04/25 04:29:33;;;;;;;7.80;3.80;;;;;;;7.63;88.39;95427.83;107919;1267;32575;-76
2022/04/25 04:32:07;;;;;;;5.80;3.10;;;;;;;8.11;88.85;95434.27;107862;1268;35912;-76
2022/04/25 04:34:39;;;;;;;6.00;3.10;;;;;;;8.83;89.05;95435.17;107803;1268;36437;-76
2022/04/25 04:37:09;;;;;;;6.70;3.40;;;;;;;9.32;88.06;95439.45;107801;1268;31540;-76
2022/04/25 04:39:40;;;;;;;4.90;3.40;;;;;;;9.59;86.91;95439.03;107838;1268;34311;-76
2022/04/25 04:42:11;;;;;;;5.00;2.80;;;;;;;10.10;86.41;95440.29;107892;1268;32781;-76
2022/04/25 04:44:43;;;;;;;5.80;3.20;;;;;;;11.01;86.50;95444.39;107808;1265;34113;-76
2022/04/25 04:47:15;;;;;;;6.00;3.40;;;;;;;12.09;85.15;95446.65;107894;1268;37887;-76
2022/04/25 04:49:46;;;;;;;5.20;3.30;;;;;;;12.38;82.18;95447.97;107951;1268;33223;-76
2022/04/25 04:52:17;;;;;;;4.90;3.30;;;;;;;11.97;79.75;95451.08;107941;1268;39673;-76
2022/04/25 04:54:48;;;;;;;4.80;3.10;;;;;;;11.24;78.52;95447.99;107935;1268;34916;-76
2022/04/25 04:57:19;;;;;;;4.70;3.00;;;;;;;10.77;79.00;95445.40;107899;1268;33538;-75
2022/04/25 04:59:50;;;;;;;6.20;4.00;;;;;;;10.44;79.46;95452.81;107786;1268;32600;-76
2022/04/25 05:02:21;;;;;;;7.10;3.80;;;;;;;10.24;79.85;95450.10;107849;1268;39970;-76
2022/04/25 05:04:52;;;;;;;6.90;3.90;;;;;;;10.22;80.29;95449.71;107863;1268;38319;-76
2022/04/25 05:07:23;;;;;;;5.70;3.70;;;;;;;10.31;80.59;95451.14;107855;1268;33627;-76
2022/04/25 05:09:54;;;;;;;5.90;3.70;;;;;;;10.37;80.58;95451.73;107828;1268;34727;-76
2022/04/25 05:12:26;;;;;;;6.60;4.00;;;;;;;10.46;80.50;95451.64;107801;1268;39711;-76
2022/04/25 05:14:59;;;;;;;5.10;2.90;;;;;;;10.63;80.15;95453.25;107844;1268;36702;-76
2022/04/25 05:17:29;;;;;;;6.40;3.20;;;;;;;10.71;79.82;95456.42;107891;1268;32984;-76
2022/04/25 05:20:03;;;;;;;5.70;3.10;;;;;;;10.97;79.64;95460.33;107844;1268;42904;-76
2022/04/25 05:22:34;;;;;;;5.90;3.20;;;;;;;11.45;79.21;95457.98;107788;1268;33021;-76
2022/04/25 05:25:06;;;;;;;6.90;3.30;;;;;;;11.75;78.35;95461.30;107776;1267;36329;-76
2022/04/25 05:27:38;;;;;;;6.80;2.90;;;;;;;11.78;77.92;95464.45;107915;1267;35329;-76
2022/04/25 05:30:11;;;;;;;4.80;2.50;;;;;;;11.97;77.64;95463.23;107792;1268;36016;-76
2022/04/25 05:32:47;;;;;;;4.90;2.60;;;;;;;12.75;77.36;95467.65;107906;1268;47775;-76
2022/04/25 05:35:19;;;;;;;4.50;2.60;;;;;;;13.57;76.82;95465.21;107987;1268;33266;-76
2022/04/25 05:37:51;;;;;;;4.30;2.70;;;;;;;14.28;75.59;95465.57;107918;1267;31503;-76
2022/04/25 05:40:23;;;;;;;5.30;3.20;;;;;;;14.29;73.75;95468.52;107946;1268;33875;-76
2022/04/25 05:42:56;;;;;;;5.80;3.40;;;;;;;13.84;71.65;95470.67;107882;1268;41745;-76
2022/04/25 05:45:27;;;;;;;4.30;2.60;;;;;;;13.18;71.41;95472.78;107860;1268;33930;-76
2022/04/25 05:48:00;;;;;;;4.80;2.70;;;;;;;12.72;72.16;95476.97;107735;1268;38968;-76
2022/04/25 05:53:19;;;;;;;5.80;2.80;;;;;;;12.32;72.33;95478.25;107869;1268;39094;-75
2022/04/25 05:55:50;;;;;;;6.10;3.00;;;;;;;12.04;72.63;95480.67;107798;1267;41549;-76
2022/04/25 05:58:21;;;;;;;5.80;3.40;;;;;;;11.88;72.99;95477.79;107895;1267;31510;-76
2022/04/25 06:00:52;;;;;;;5.60;3.10;;;;;;;11.88;73.75;95479.85;107768;1270;32090;-76
2022/04/25 06:03:23;;;;;;;4.40;2.40;;;;;;;11.91;73.67;95479.75;107895;1268;31149;-76
2022/04/25 06:05:55;;;;;;;3.30;2.60;;;;;;;11.80;73.38;95481.46;107823;1268;60892;-76
2022/04/25 06:08:28;;;;;;;4.30;2.80;;;;;;;11.77;74.17;95481.53;107871;1268;33421;-76
2022/04/25 06:10:59;;;;;;;8.30;3.10;;;;;;;11.78;74.10;95483.79;107828;1268;34103;-76
2022/04/25 06:13:30;;;;;;;5.40;2.80;;;;;;;11.74;74.01;95479.52;107889;1268;33580;-76
2022/04/25 06:16:01;;;;;;;4.50;2.80;;;;;;;11.65;74.04;95480.09;107872;1268;33559;-76
2022/04/25 06:18:32;;;;;;;5.30;2.60;;;;;;;11.53;73.80;95483.06;107831;1268;38366;-76
2022/04/25 06:21:03;;;;;;;4.30;2.60;;;;;;;11.40;73.67;95483.39;107769;1268;38071;-76
2022/04/25 06:23:34;;;;;;;4.70;2.80;;;;;;;11.30;73.84;95486.72;107773;1268;36327;-76
2022/04/25 06:26:06;;;;;;;6.50;3.10;;;;;;;11.25;74.20;95488.75;107758;1268;37957;-76
2022/04/25 06:28:37;;;;;;;6.00;3.00;;;;;;;11.23;74.31;95488.50;107855;1268;32490;-76
2022/04/25 06:31:08;;;;;;;6.10;3.00;;;;;;;11.19;74.31;95485.79;107802;1268;35631;-76
2022/04/25 06:33:39;;;;;;;5.80;3.30;;;;;;;11.14;74.55;95484.88;107886;1268;32034;-76
2022/04/25 06:36:10;;;;;;;5.50;3.30;;;;;;;11.10;74.73;95485.41;107795;1268;43878;-76
2022/04/25 06:38:41;;;;;;;6.70;3.40;;;;;;;11.08;74.70;95487.60;107857;1268;41653;-76
2022/04/25 06:41:12;;;;;;;5.30;3.60;;;;;;;11.07;74.71;95484.38;107847;1267;31969;-76
2022/04/25 06:43:43;;;;;;;5.70;3.20;;;;;;;11.13;74.66;95482.48;107848;1268;33608;-76
2022/04/25 06:46:14;;;;;;;5.70;2.60;;;;;;;11.22;74.55;95482.52;107863;1268;40951;-76
2022/04/25 06:49:19;;;;;;;4.90;2.80;;;;;;;11.36;74.16;95483.20;107969;1268;31407;-76
2022/04/25 06:51:36;;;;;;;6.80;3.50;;;;;;;11.63;74.23;95482.29;107765;1268;40094;-76
2022/04/25 06:54:08;;;;;;;5.60;2.70;;;;;;;11.88;73.49;95479.73;107742;1268;38278;-76
2022/04/25 06:56:38;;;;;;;5.90;2.40;;;;;;;12.06;73.16;95477.42;108013;1268;37742;-76
2022/04/25 06:59:10;;;;;;;4.00;2.50;;;;;;;12.21;72.53;95476.11;107910;1268;32667;-76
2022/04/25 07:01:42;;;;;;;7.00;2.80;;;;;;;12.27;72.21;95471.87;107900;1267;29971;-76
2022/04/25 07:04:14;;;;;;;5.50;2.90;;;;;;;12.22;71.64;95467.94;107878;1267;39915;-76
2022/04/25 07:06:45;;;;;;;5.40;2.80;;;;;;;12.22;71.35;95468.70;107866;1268;38468;-76
2022/04/25 07:09:16;;;;;;;4.80;3.40;;;;;;;12.32;71.86;95470.55;107834;1267;33422;-76
2022/04/25 07:11:48;;;;;;;5.40;3.50;;;;;;;12.49;71.99;95470.89;107918;1268;34706;-76
2022/04/25 07:14:21;;;;;;;5.40;3.60;;;;;;;12.66;71.22;95472.92;107926;1268;39432;-76
2022/04/25 07:16:53;;;;;;;5.40;3.20;;;;;;;12.82;70.79;95475.15;107752;1268;35255;-76
2022/04/25 07:19:24;;;;;;;5.20;3.70;;;;;;;12.92;70.35;95478.98;107766;1268;34941;-76
2022/04/25 07:30:21;;;;;;;5.50;3.20;;;;;;;13.37;69.43;95488.02;107805;1266;45280;-76
2022/04/25 07:32:51;;;;;;;5.60;3.00;;;;;;;13.36;69.08;95490.50;107869;1268;37710;-76
2022/04/25 07:35:23;;;;;;;5.60;3.10;;;;;;;13.28;68.87;95490.76;107823;1267;41007;-76
2022/04/25 07:37:54;;;;;;;6.70;3.20;;;;;;;13.21;68.80;95491.81;107797;1267;50865;-76
2022/04/25 07:40:25;;;;;;;5.40;3.10;;;;;;;13.10;68.88;95499.38;107838;1268;35269;-76
2022/04/25 07:42:59;;;;;;;5.10;2.70;;;;;;;13.01;68.18;95504.13;107858;1268;35317;-76
2022/04/25 07:45:30;;;;;;;8.80;3.00;;;;;;;12.87;68.16;95507.30;107758;1267;38698;-76
2022/04/25 07:48:01;;;;;;;7.70;2.60;;;;;;;12.76;67.95;95509.20;107851;1267;35299;-76
2022/04/25 07:50:32;;;;;;;7.10;2.90;;;;;;;12.77;68.16;95514.34;107865;1268;45669;-76
2022/04/25 07:53:03;;;;;;;5.50;2.60;;;;;;;12.91;68.12;95512.09;107895;1267;44791;-76
2022/04/25 07:55:34;;;;;;;4.70;2.50;;;;;;;13.28;68.30;95513.38;107853;1268;37873;-77
2022/04/25 07:58:07;;;;;;;4.90;2.60;;;;;;;13.89;67.87;95506.84;107801;1268;35594;-76
2022/04/25 08:00:40;;;;;;;6.00;2.80;;;;;;;14.32;67.19;95507.63;107843;1267;39490;-76
2022/04/25 08:03:11;;;;;;;5.00;2.70;;;;;;;14.81;66.69;95502.52;107837;1268;40996;-76
2022/04/25 08:05:42;;;;;;;4.50;2.50;;;;;;;15.69;65.99;95503.02;107845;1268;39913;-77
2022/04/25 08:08:13;;;;;;;5.00;2.80;;;;;;;16.64;64.57;95499.92;107864;1268;34034;-77
2022/04/25 08:10:44;;;;;;;6.30;2.60;;;;;;;16.69;62.50;95500.34;107858;1268;49976;-77
2022/04/25 08:18:52;;;;;;;4.80;2.90;;;;;;;16.00;62.58;95506.20;107761;1268;41923;-76
2022/04/25 08:21:23;;;;;;;5.30;2.60;;;;;;;16.15;63.13;95505.47;107841;1268;36536;-77
2022/04/25 08:23:54;;;;;;;5.00;3.20;;;;;;;16.97;62.89;95505.95;107890;1268;37840;-77
2022/04/25 08:26:31;;;;;;;4.10;2.80;;;;;;;17.96;60.47;95508.43;107739;1268;36225;-77
2022/04/25 08:29:03;;;;;;;7.20;3.70;;;;;;;18.09;59.79;95505.16;107864;1267;43796;-77
2022/04/25 08:31:35;;;;;;;6.40;3.70;;;;;;;19.22;60.64;95498.89;107905;1268;42006;-77
2022/04/25 08:34:09;;;;;;;5.60;3.20;;;;;;;21.14;56.26;95493.89;107876;1267;34887;-77
2022/04/25 08:36:40;;;;;;;3.20;2.60;;;;;;;23.02;50.87;95494.71;107880;1268;32146;-77
2022/04/25 08:39:11;;;;;;;4.70;3.50;;;;;;;24.10;47.04;95492.51;107899;1267;52999;-78
2022/04/25 08:41:47;;;;;;;3.10;2.60;;;;;;;24.81;47.58;95497.28;107865;1268;42088;-78
2022/04/25 08:44:19;;;;;;;4.30;3.10;;;;;;;26.94;45.30;95494.25;107940;1268;37257;-78
2022/04/25 08:46:52;;;;;;;4.70;3.40;;;;;;;26.93;36.69;95491.06;107916;1267;32671;-78
2022/04/25 08:49:24;;;;;;;5.60;3.70;;;;;;;25.26;41.74;95489.64;107868;1268;56330;-78
2022/04/25 08:52:01;;;;;;;5.20;3.40;;;;;;;25.41;41.59;95495.23;107878;1267;38292;-78
2022/04/25 08:54:33;;;;;;;4.90;3.40;;;;;;;22.77;39.01;95496.33;107884;1268;37814;-78
2022/04/25 08:57:06;;;;;;;6.20;3.80;;;;;;;20.47;43.61;95500.50;107834;1268;34156;-78
2022/04/25 08:59:38;;;;;;;4.80;3.80;;;;;;;19.92;45.56;95497.84;107872;1268;44983;-78
2022/04/25 09:02:10;;;;;;;6.60;3.60;;;;;;;19.29;47.33;95501.85;107857;1267;36192;-78
2022/04/25 09:04:40;;;;;;;5.60;3.50;;;;;;;20.12;49.03;95501.86;107880;1268;36008;-78
2022/04/25 09:07:12;;;;;;;5.30;3.70;;;;;;;21.52;45.96;95501.77;107853;1268;31920;-78
2022/04/25 09:09:43;;;;;;;4.60;3.10;;;;;;;21.54;46.69;95502.41;107875;1268;36291;-78
2022/04/25 09:12:15;;;;;;;4.00;3.00;;;;;;;21.22;46.60;95504.39;107781;1268;56847;-78
2022/04/25 09:14:47;;;;;;;6.60;3.50;;;;;;;20.45;46.94;95505.42;107970;1267;32333;-78
2022/04/25 09:17:18;;;;;;;4.70;3.00;;;;;;;20.04;47.80;95508.61;107977;1268;41926;-78
2022/04/25 09:19:49;;;;;;;5.10;3.70;;;;;;;19.71;48.63;95513.17;107912;1267;36607;-78
2022/04/25 09:22:36;;;;;;;6.60;3.20;;;;;;;19.65;48.56;95519.31;107850;1268;34245;-78
2022/04/25 09:25:10;;;;;;;5.90;3.10;;;;;;;19.28;48.55;95519.66;107871;1268;36787;-77
2022/04/25 09:27:42;;;;;;;5.70;3.80;;;;;;;18.97;49.03;95518.08;107878;1267;33457;-77
2022/04/25 09:30:23;;;;;;;4.70;2.80;;;;;;;19.72;50.40;95521.69;107889;1267;39165;-77
2022/04/25 09:32:55;;;;;;;3.10;2.40;;;;;;;20.95;50.10;95517.16;107795;1268;39948;-77
2022/04/25 09:35:34;;;;;;;6.10;4.00;;;;;;;21.26;48.23;95514.20;107835;1267;33436;-77
2022/04/25 09:38:08;;;;;;;5.00;3.10;;;;;;;20.16;45.71;95515.60;107889;1265;36365;-77
2022/04/25 09:40:41;;;;;;;4.70;2.90;;;;;;;18.79;45.87;95514.54;107815;1268;37888;-77
2022/04/25 09:43:14;;;;;;;3.80;2.70;;;;;;;17.92;48.06;95519.77;107825;1268;34871;-77
2022/04/25 09:45:46;;;;;;;4.80;2.80;;;;;;;18.12;50.19;95522.62;107856;1268;36832;-77
2022/04/25 09:48:19;;;;;;;4.70;2.90;;;;;;;18.57;50.39;95520.27;107788;1268;36623;-77
2022/04/25 09:51:03;;;;;;;5.10;2.50;;;;;;;19.13;50.50;95510.05;107835;1270;35849;-77
2022/04/25 09:53:44;;;;;;;5.30;2.60;;;;;;;19.58;49.85;95509.76;107782;1269;36158;-77
2022/04/25 09:56:19;;;;;;;5.20;2.50;;;;;;;19.43;48.63;95506.31;107844;1270;39196;-78
2022/04/25 09:59:02;;;;;;;4.50;2.40;;;;;;;19.12;48.87;95512.19;107941;1268;34555;-77
2022/04/25 10:01:34;;;;;;;5.40;2.40;;;;;;;18.86;49.32;95520.20;107798;1268;31199;-78
2022/04/25 10:04:06;;;;;;;3.80;2.40;;;;;;;18.58;48.99;95519.98;107903;1268;35943;-78
2022/04/25 10:06:38;;;;;;;3.80;2.60;;;;;;;18.24;49.33;95521.71;107813;1268;43852;-78
2022/04/25 10:09:09;;;;;;;3.90;2.20;;;;;;;18.07;49.78;95521.00;107840;1267;37422;-78
2022/04/25 10:11:43;;;;;;;3.60;2.40;;;;;;;17.97;50.09;95523.23;107772;1268;31426;-78
2022/04/25 10:14:14;;;;;;;3.50;2.40;;;;;;;17.73;50.20;95523.16;107729;1267;35835;-78
2022/04/25 10:16:46;;;;;;;5.40;2.70;;;;;;;17.31;50.44;95523.90;107856;1267;39724;-78
2022/04/25 10:19:21;;;;;;;5.80;2.70;;;;;;;16.93;51.13;95521.69;107948;1267;33163;-78
2022/04/25 10:21:53;;;;;;;6.10;2.80;;;;;;;16.55;51.46;95519.78;107881;1268;34534;-78
2022/04/25 10:24:25;;;;;;;4.10;2.60;;;;;;;16.21;51.98;95524.60;107812;1268;34217;-78
2022/04/25 10:26:58;;;;;;;5.30;3.30;;;;;;;15.89;52.62;95526.80;107856;1268;34948;-77
2022/04/25 10:29:36;;;;;;;5.30;3.00;;;;;;;15.54;52.84;95523.40;107901;1267;36359;-78
2022/04/25 10:32:11;;;;;;;5.30;3.20;;;;;;;15.25;53.65;95520.14;107819;1267;31760;-78
2022/04/25 10:34:51;;;;;;;6.80;3.60;;;;;;;14.96;54.39;95524.35;107888;1267;44910;-78
2022/04/25 10:37:33;;;;;;;6.10;3.50;;;;;;;14.67;55.25;95520.72;107877;1267;51293;-77
2022/04/25 10:40:08;;;;;;;6.40;3.80;;;;;;;14.43;56.19;95526.08;107901;1268;34839;-77
2022/04/25 10:45:54;;;;;;;7.10;4.10;;;;;;;13.98;58.03;95535.23;103579;1309;544927;-78
2022/04/25 10:48:25;;;;;;;7.40;3.70;;;;;;;13.83;58.87;95538.92;106513;1283;101448;-78
2022/04/25 10:51:16;;;;;;;7.00;4.20;;;;;;;13.63;59.61;95542.54;106538;1283;100200;-78
2022/04/25 10:54:01;;;;;;;;;;;;;;;13.36;60.78;95550.39;107161;1282;32209;-78
2022/04/25 10:56:35;;;;;;;8.20;5.60;;;;;;;13.04;62.66;95552.42;107050;1282;36760;-78
2022/04/25 10:59:26;;;;;;;9.40;5.60;;;;;;;12.70;63.92;95560.01;106940;1280;188543;-78
2022/04/25 11:01:56;;;;;;;;;;;;;;;12.48;65.95;95567.44;107315;1277;33346;-78
2022/04/25 11:04:26;;;;;;;;;;;;;;;12.20;68.34;95577.63;107340;1277;37849;-77
2022/04/25 11:07:24;;;;;;;9.80;6.50;;;;;;;11.85;72.85;95580.78;107208;1277;38261;-78
2022/04/25 11:09:55;;;;;;;8.80;6.30;;;;;;;11.43;71.80;95588.52;107172;1277;40437;-78
2022/04/25 11:12:58;;;;;;;9.60;6.40;;;;;;;11.42;71.59;95594.27;107109;1277;70466;-78
2022/04/25 11:15:43;;;;;;;8.40;5.30;;;;;;;11.57;72.07;95601.58;107152;1277;49308;-78
2022/04/25 11:18:30;;;;;;;8.70;5.90;;;;;;;11.66;71.99;95608.61;107161;1277;50979;-79
2022/04/25 11:21:04;;;;;;;10.60;6.90;;;;;;;11.47;73.26;95616.04;107337;1277;38376;-79
2022/04/25 11:23:47;;;;;;;8.50;5.80;;;;;;;11.25;74.29;95618.92;107304;1277;45986;-79
